EVA112 RCTP-ROAH
Flight info
| Callsign | EVA112 |
|---|---|
| Flight time | 0h 54m |
| Altitude | 35000 |
| Route | KUDOS1C KUDOS R595 SEDKU Y573 MJC Y57 VELNO |
| Aircraft | A321/M-SDE3FGHIRWY/LB1 |
Departure
| Time | 2026-04-19 05:43 |
|---|---|
| Airport | Taiwan Taoyuan International Airport (RCTP) |
Arrival
| Time | 2026-04-19 06:37 |
|---|---|
| Airport | Naha International Airport (ROAH) |
| Time | Latitude | Longitude | Altitude | Speed | Heading |
|---|---|---|---|---|---|
| 2026-04-19 05:30 | 25.07846 | 121.22986 | 99 ft | 0 kts | 139° |
| 2026-04-19 05:34 | 25.07858 | 121.22975 | 99 ft | 4 kts | 139° |
| 2026-04-19 05:34 | 25.07878 | 121.22955 | 99 ft | 4 kts | 139° |
| 2026-04-19 05:34 | 25.07899 | 121.22936 | 100 ft | 4 kts | 139° |
| 2026-04-19 05:34 | 25.07919 | 121.22917 | 100 ft | 4 kts | 140° |
| 2026-04-19 05:35 | 25.07935 | 121.22910 | 100 ft | 4 kts | 217° |
| 2026-04-19 05:35 | 25.07950 | 121.22926 | 101 ft | 4 kts | 229° |
| 2026-04-19 05:35 | 25.07961 | 121.22940 | 100 ft | 0 kts | 229° |
| 2026-04-19 05:37 | 25.07960 | 121.22939 | 100 ft | 2 kts | 229° |
| 2026-04-19 05:37 | 25.07934 | 121.22906 | 100 ft | 9 kts | 229° |
| 2026-04-19 05:37 | 25.07880 | 121.22838 | 100 ft | 12 kts | 229° |
| 2026-04-19 05:38 | 25.07827 | 121.22770 | 100 ft | 11 kts | 229° |
| 2026-04-19 05:38 | 25.07779 | 121.22708 | 100 ft | 10 kts | 229° |
| 2026-04-19 05:38 | 25.07729 | 121.22645 | 101 ft | 12 kts | 229° |
| 2026-04-19 05:38 | 25.07672 | 121.22571 | 99 ft | 14 kts | 229° |
| 2026-04-19 05:39 | 25.07605 | 121.22486 | 100 ft | 16 kts | 229° |
| 2026-04-19 05:39 | 25.07526 | 121.22386 | 101 ft | 18 kts | 228° |
| 2026-04-19 05:39 | 25.07438 | 121.22273 | 100 ft | 21 kts | 228° |
| 2026-04-19 05:39 | 25.07343 | 121.22152 | 101 ft | 19 kts | 230° |
| 2026-04-19 05:40 | 25.07254 | 121.22036 | 101 ft | 21 kts | 230° |
| 2026-04-19 05:40 | 25.07153 | 121.21907 | 101 ft | 23 kts | 229° |
| 2026-04-19 05:40 | 25.07105 | 121.21829 | 101 ft | 10 kts | 261° |
| 2026-04-19 05:40 | 25.07143 | 121.21769 | 101 ft | 10 kts | 319° |
| 2026-04-19 05:41 | 25.07190 | 121.21724 | 100 ft | 9 kts | 319° |
| 2026-04-19 05:41 | 25.07249 | 121.21667 | 101 ft | 14 kts | 319° |
| 2026-04-19 05:41 | 25.07307 | 121.21625 | 102 ft | 4 kts | 18° |
| 2026-04-19 05:41 | 25.07330 | 121.21649 | 102 ft | 0 kts | 49° |
| 2026-04-19 05:42 | 25.07359 | 121.21687 | 101 ft | 27 kts | 49° |
| 2026-04-19 05:42 | 25.07641 | 121.22044 | 102 ft | 93 kts | 49° |
| 2026-04-19 05:42 | 25.08180 | 121.22727 | 99 ft | 142 kts | 49° |
| 2026-04-19 05:42 | 25.08902 | 121.23655 | 223 ft | 168 kts | 48° |
| 2026-04-19 05:43 | 25.09654 | 121.24607 | 867 ft | 163 kts | 45° |
| 2026-04-19 05:43 | 25.10395 | 121.25551 | 1352 ft | 166 kts | 49° |
| 2026-04-19 05:43 | 25.11143 | 121.26508 | 1923 ft | 164 kts | 48° |
| 2026-04-19 05:43 | 25.11904 | 121.27475 | 2302 ft | 169 kts | 49° |
| 2026-04-19 05:44 | 25.12672 | 121.28464 | 2748 ft | 170 kts | 49° |
| 2026-04-19 05:44 | 25.13455 | 121.29461 | 3161 ft | 173 kts | 48° |
| 2026-04-19 05:44 | 25.14274 | 121.30507 | 3386 ft | 190 kts | 47° |
| 2026-04-19 05:44 | 25.15174 | 121.31668 | 3583 ft | 207 kts | 47° |
| 2026-04-19 05:45 | 25.16145 | 121.32927 | 3764 ft | 223 kts | 48° |
| 2026-04-19 05:45 | 25.17176 | 121.34262 | 3919 ft | 242 kts | 48° |
| 2026-04-19 05:45 | 25.18324 | 121.35750 | 4118 ft | 266 kts | 46° |
| 2026-04-19 05:45 | 25.19545 | 121.37343 | 4654 ft | 275 kts | 47° |
| 2026-04-19 05:46 | 25.20789 | 121.38967 | 5310 ft | 279 kts | 47° |
| 2026-04-19 05:46 | 25.22056 | 121.40621 | 5927 ft | 285 kts | 48° |
| 2026-04-19 05:46 | 25.23353 | 121.42314 | 6542 ft | 291 kts | 48° |
| 2026-04-19 05:46 | 25.24667 | 121.44029 | 7182 ft | 294 kts | 48° |
| 2026-04-19 05:47 | 25.25998 | 121.45766 | 7816 ft | 298 kts | 47° |
| 2026-04-19 05:47 | 25.27347 | 121.47521 | 8450 ft | 302 kts | 47° |
| 2026-04-19 05:47 | 25.28548 | 121.49402 | 9020 ft | 309 kts | 65° |
| 2026-04-19 05:47 | 25.28956 | 121.51739 | 9587 ft | 316 kts | 95° |
| 2026-04-19 05:48 | 25.28340 | 121.54055 | 10081 ft | 317 kts | 124° |
| 2026-04-19 05:48 | 25.26891 | 121.55918 | 10367 ft | 330 kts | 139° |
| 2026-04-19 05:48 | 25.25364 | 121.57919 | 10489 ft | 354 kts | 122° |
| 2026-04-19 05:48 | 25.24309 | 121.60460 | 10611 ft | 374 kts | 111° |
| 2026-04-19 05:49 | 25.23460 | 121.63232 | 10729 ft | 393 kts | 109° |
| 2026-04-19 05:49 | 25.22602 | 121.66162 | 10967 ft | 405 kts | 108° |
| 2026-04-19 05:49 | 25.21754 | 121.69145 | 11433 ft | 410 kts | 108° |
| 2026-04-19 05:49 | 25.20905 | 121.72171 | 11949 ft | 414 kts | 108° |
| 2026-04-19 05:50 | 25.20060 | 121.75178 | 12464 ft | 417 kts | 108° |
| 2026-04-19 05:50 | 25.19191 | 121.78236 | 12966 ft | 420 kts | 108° |
| 2026-04-19 05:50 | 25.18304 | 121.81324 | 13454 ft | 423 kts | 108° |
| 2026-04-19 05:50 | 25.17408 | 121.84422 | 13914 ft | 426 kts | 108° |
| 2026-04-19 05:51 | 25.16500 | 121.87550 | 14355 ft | 429 kts | 108° |
| 2026-04-19 05:51 | 25.15582 | 121.90697 | 14781 ft | 431 kts | 108° |
| 2026-04-19 05:51 | 25.14662 | 121.93852 | 15202 ft | 434 kts | 108° |
| 2026-04-19 05:51 | 25.13751 | 121.96995 | 15624 ft | 436 kts | 107° |
| 2026-04-19 05:52 | 25.13059 | 122.00267 | 16016 ft | 439 kts | 97° |
| 2026-04-19 05:52 | 25.12752 | 122.03620 | 16426 ft | 441 kts | 94° |
| 2026-04-19 05:52 | 25.12470 | 122.07006 | 16839 ft | 444 kts | 94° |
| 2026-04-19 05:52 | 25.12185 | 122.10408 | 17219 ft | 448 kts | 94° |
| 2026-04-19 05:53 | 25.11898 | 122.13844 | 17623 ft | 451 kts | 94° |
| 2026-04-19 05:53 | 25.11609 | 122.17289 | 18021 ft | 453 kts | 94° |
| 2026-04-19 05:53 | 25.11314 | 122.20768 | 18391 ft | 456 kts | 94° |
| 2026-04-19 05:53 | 25.11014 | 122.24265 | 18728 ft | 459 kts | 95° |
| 2026-04-19 05:54 | 25.10716 | 122.27736 | 19059 ft | 461 kts | 95° |
| 2026-04-19 05:54 | 25.10407 | 122.31260 | 19397 ft | 464 kts | 95° |
| 2026-04-19 05:54 | 25.10077 | 122.34814 | 19736 ft | 466 kts | 95° |
| 2026-04-19 05:54 | 25.09731 | 122.38376 | 20069 ft | 469 kts | 96° |
| 2026-04-19 05:55 | 25.09375 | 122.41970 | 20413 ft | 472 kts | 96° |
| 2026-04-19 05:55 | 25.09015 | 122.45584 | 20758 ft | 475 kts | 96° |
| 2026-04-19 05:55 | 25.08656 | 122.49207 | 21091 ft | 477 kts | 96° |
| 2026-04-19 05:55 | 25.08299 | 122.52863 | 21426 ft | 480 kts | 96° |
| 2026-04-19 05:56 | 25.07944 | 122.56528 | 21763 ft | 483 kts | 96° |
| 2026-04-19 05:56 | 25.07593 | 122.60177 | 22091 ft | 486 kts | 96° |
| 2026-04-19 05:56 | 25.07239 | 122.63883 | 22383 ft | 489 kts | 96° |
| 2026-04-19 05:56 | 25.06881 | 122.67628 | 22675 ft | 492 kts | 96° |
| 2026-04-19 05:57 | 25.06519 | 122.71394 | 22998 ft | 495 kts | 97° |
| 2026-04-19 05:57 | 25.06146 | 122.75168 | 23306 ft | 497 kts | 97° |
| 2026-04-19 05:57 | 25.05767 | 122.78975 | 23606 ft | 500 kts | 97° |
| 2026-04-19 05:57 | 25.05386 | 122.82789 | 23855 ft | 503 kts | 97° |
| 2026-04-19 05:58 | 25.05001 | 122.86637 | 24105 ft | 505 kts | 97° |
| 2026-04-19 05:58 | 25.04620 | 122.90452 | 24337 ft | 508 kts | 97° |
| 2026-04-19 05:58 | 25.04234 | 122.94327 | 24572 ft | 511 kts | 97° |
| 2026-04-19 05:58 | 25.03845 | 122.98236 | 24809 ft | 513 kts | 97° |
| 2026-04-19 05:59 | 25.03454 | 123.02149 | 25042 ft | 516 kts | 97° |
| 2026-04-19 05:59 | 25.03058 | 123.06094 | 25272 ft | 518 kts | 97° |
| 2026-04-19 05:59 | 25.02662 | 123.10045 | 25502 ft | 521 kts | 97° |
| 2026-04-19 05:59 | 25.02262 | 123.14028 | 25732 ft | 523 kts | 97° |
| 2026-04-19 06:00 | 25.01857 | 123.18031 | 25941 ft | 526 kts | 98° |
| 2026-04-19 06:00 | 25.01452 | 123.22040 | 26167 ft | 529 kts | 98° |
| 2026-04-19 06:00 | 25.01042 | 123.26082 | 26393 ft | 531 kts | 98° |
| 2026-04-19 06:00 | 25.00629 | 123.30141 | 26615 ft | 533 kts | 98° |
| 2026-04-19 06:01 | 25.00220 | 123.34146 | 26862 ft | 534 kts | 98° |
| 2026-04-19 06:01 | 24.99805 | 123.38218 | 27180 ft | 534 kts | 98° |
| 2026-04-19 06:01 | 24.99389 | 123.42275 | 27472 ft | 534 kts | 98° |
| 2026-04-19 06:01 | 24.98970 | 123.46346 | 27764 ft | 534 kts | 98° |
| 2026-04-19 06:02 | 24.98551 | 123.50405 | 28053 ft | 534 kts | 98° |
| 2026-04-19 06:02 | 24.98129 | 123.54478 | 28337 ft | 534 kts | 98° |
| 2026-04-19 06:02 | 24.97708 | 123.58499 | 28616 ft | 535 kts | 98° |
| 2026-04-19 06:02 | 24.97282 | 123.62562 | 28890 ft | 535 kts | 99° |
| 2026-04-19 06:03 | 24.96856 | 123.66641 | 29164 ft | 535 kts | 98° |
| 2026-04-19 06:03 | 24.96432 | 123.70709 | 29428 ft | 535 kts | 99° |
| 2026-04-19 06:03 | 24.96007 | 123.74790 | 29698 ft | 535 kts | 99° |
| 2026-04-19 06:03 | 24.95581 | 123.78858 | 29961 ft | 536 kts | 99° |
| 2026-04-19 06:04 | 24.95150 | 123.82941 | 30213 ft | 536 kts | 99° |
| 2026-04-19 06:04 | 24.94715 | 123.87024 | 30437 ft | 536 kts | 99° |
| 2026-04-19 06:04 | 24.94280 | 123.91094 | 30649 ft | 536 kts | 100° |
| 2026-04-19 06:04 | 24.93852 | 123.95122 | 30873 ft | 536 kts | 100° |
| 2026-04-19 06:05 | 24.93420 | 123.99191 | 31074 ft | 536 kts | 101° |
| 2026-04-19 06:05 | 24.92981 | 124.03272 | 31298 ft | 536 kts | 101° |
| 2026-04-19 06:05 | 24.92519 | 124.07347 | 31527 ft | 535 kts | 101° |
| 2026-04-19 06:05 | 24.92041 | 124.11403 | 31754 ft | 535 kts | 102° |
| 2026-04-19 06:06 | 24.91554 | 124.15469 | 31977 ft | 535 kts | 102° |
| 2026-04-19 06:06 | 24.91068 | 124.19521 | 32199 ft | 535 kts | 102° |
| 2026-04-19 06:06 | 24.90583 | 124.23586 | 32411 ft | 534 kts | 102° |
| 2026-04-19 06:06 | 24.90106 | 124.27591 | 32656 ft | 533 kts | 103° |
| 2026-04-19 06:07 | 24.89626 | 124.31631 | 32867 ft | 533 kts | 103° |
| 2026-04-19 06:07 | 24.89146 | 124.35683 | 33091 ft | 533 kts | 103° |
| 2026-04-19 06:07 | 24.88668 | 124.39720 | 33303 ft | 533 kts | 103° |
| 2026-04-19 06:07 | 24.88188 | 124.43768 | 33513 ft | 532 kts | 103° |
| 2026-04-19 06:08 | 24.87711 | 124.47801 | 33700 ft | 532 kts | 103° |
| 2026-04-19 06:08 | 24.87233 | 124.51845 | 33911 ft | 532 kts | 103° |
| 2026-04-19 06:08 | 24.86752 | 124.55884 | 34100 ft | 531 kts | 104° |
| 2026-04-19 06:08 | 24.86268 | 124.59907 | 34266 ft | 531 kts | 104° |
| 2026-04-19 06:09 | 24.85787 | 124.63885 | 34441 ft | 530 kts | 104° |
| 2026-04-19 06:09 | 24.85298 | 124.67913 | 34616 ft | 530 kts | 104° |
| 2026-04-19 06:09 | 24.84809 | 124.71924 | 34798 ft | 529 kts | 104° |
| 2026-04-19 06:09 | 24.84319 | 124.75946 | 34914 ft | 529 kts | 104° |
| 2026-04-19 06:10 | 24.83832 | 124.79951 | 34952 ft | 529 kts | 104° |
| 2026-04-19 06:10 | 24.82856 | 124.87960 | 34949 ft | 528 kts | 104° |
| 2026-04-19 06:11 | 24.81879 | 124.95975 | 34946 ft | 527 kts | 104° |
| 2026-04-19 06:11 | 24.80900 | 125.03911 | 34924 ft | 527 kts | 104° |
| 2026-04-19 06:12 | 24.79411 | 125.15870 | 34924 ft | 526 kts | 104° |
| 2026-04-19 06:12 | 24.78721 | 125.23926 | 34930 ft | 534 kts | 92° |
| 2026-04-19 06:13 | 24.80037 | 125.32026 | 34919 ft | 543 kts | 72° |
| 2026-04-19 06:13 | 24.83446 | 125.39395 | 34944 ft | 546 kts | 58° |
| 2026-04-19 06:14 | 24.87473 | 125.46485 | 34932 ft | 546 kts | 58° |
| 2026-04-19 06:14 | 24.91485 | 125.53584 | 34924 ft | 546 kts | 58° |
| 2026-04-19 06:15 | 24.95500 | 125.60699 | 34932 ft | 547 kts | 58° |
| 2026-04-19 06:15 | 24.99515 | 125.67815 | 34967 ft | 547 kts | 58° |
| 2026-04-19 06:16 | 25.03510 | 125.74900 | 34955 ft | 548 kts | 58° |
| 2026-04-19 06:16 | 25.07530 | 125.82042 | 34943 ft | 548 kts | 58° |
| 2026-04-19 06:17 | 25.11543 | 125.89197 | 34945 ft | 548 kts | 58° |
| 2026-04-19 06:17 | 25.15556 | 125.96353 | 34976 ft | 549 kts | 58° |
| 2026-04-19 06:18 | 25.19540 | 126.03476 | 34962 ft | 549 kts | 58° |
| 2026-04-19 06:18 | 25.23560 | 126.10669 | 34168 ft | 556 kts | 58° |
| 2026-04-19 06:19 | 25.25620 | 126.14353 | 32870 ft | 569 kts | 58° |
| 2026-04-19 06:19 | 25.27689 | 126.18060 | 32267 ft | 564 kts | 58° |
| 2026-04-19 06:19 | 25.29729 | 126.21721 | 31098 ft | 557 kts | 58° |
| 2026-04-19 06:19 | 25.31763 | 126.25372 | 29544 ft | 557 kts | 58° |
| 2026-04-19 06:20 | 25.33771 | 126.28981 | 28455 ft | 561 kts | 58° |
| 2026-04-19 06:20 | 25.35818 | 126.32662 | 27523 ft | 560 kts | 58° |
| 2026-04-19 06:20 | 25.37850 | 126.36318 | 26516 ft | 555 kts | 58° |
| 2026-04-19 06:20 | 25.39865 | 126.39950 | 25056 ft | 555 kts | 58° |
| 2026-04-19 06:21 | 25.41881 | 126.43583 | 23663 ft | 553 kts | 58° |
| 2026-04-19 06:21 | 25.43866 | 126.47163 | 22728 ft | 538 kts | 58° |
| 2026-04-19 06:21 | 25.45799 | 126.50654 | 21737 ft | 526 kts | 58° |
| 2026-04-19 06:21 | 25.47687 | 126.54068 | 20885 ft | 512 kts | 58° |
| 2026-04-19 06:22 | 25.49490 | 126.57336 | 20200 ft | 497 kts | 58° |
| 2026-04-19 06:22 | 25.51269 | 126.60569 | 19499 ft | 489 kts | 58° |
| 2026-04-19 06:22 | 25.53031 | 126.63775 | 18807 ft | 487 kts | 58° |
| 2026-04-19 06:22 | 25.54784 | 126.66967 | 18107 ft | 484 kts | 57° |
| 2026-04-19 06:23 | 25.56524 | 126.70141 | 17395 ft | 480 kts | 57° |
| 2026-04-19 06:23 | 25.58248 | 126.73287 | 16750 ft | 475 kts | 57° |
| 2026-04-19 06:23 | 25.59950 | 126.76394 | 16108 ft | 469 kts | 58° |
| 2026-04-19 06:23 | 25.61632 | 126.79469 | 15490 ft | 464 kts | 58° |
| 2026-04-19 06:24 | 25.63296 | 126.82511 | 14906 ft | 459 kts | 57° |
| 2026-04-19 06:24 | 25.64920 | 126.85479 | 14336 ft | 454 kts | 57° |
| 2026-04-19 06:24 | 25.66547 | 126.88453 | 13771 ft | 449 kts | 57° |
| 2026-04-19 06:24 | 25.68157 | 126.91400 | 13157 ft | 444 kts | 57° |
| 2026-04-19 06:25 | 25.69746 | 126.94309 | 12658 ft | 437 kts | 57° |
| 2026-04-19 06:25 | 25.71303 | 126.97165 | 12184 ft | 430 kts | 58° |
| 2026-04-19 06:25 | 25.72841 | 126.99985 | 11637 ft | 425 kts | 58° |
| 2026-04-19 06:25 | 25.74355 | 127.02765 | 11303 ft | 415 kts | 58° |
| 2026-04-19 06:26 | 25.75814 | 127.05456 | 11173 ft | 399 kts | 58° |
| 2026-04-19 06:26 | 25.77218 | 127.08046 | 11052 ft | 385 kts | 58° |
| 2026-04-19 06:26 | 25.78574 | 127.10547 | 10930 ft | 372 kts | 58° |
| 2026-04-19 06:26 | 25.79870 | 127.12930 | 10818 ft | 359 kts | 58° |
| 2026-04-19 06:27 | 25.81136 | 127.15258 | 10671 ft | 342 kts | 58° |
| 2026-04-19 06:27 | 25.82336 | 127.17466 | 10226 ft | 329 kts | 58° |
| 2026-04-19 06:27 | 25.83514 | 127.19630 | 9926 ft | 325 kts | 58° |
| 2026-04-19 06:27 | 25.84675 | 127.21761 | 9809 ft | 321 kts | 58° |
| 2026-04-19 06:28 | 25.85829 | 127.23880 | 9674 ft | 320 kts | 57° |
| 2026-04-19 06:28 | 25.86977 | 127.25992 | 9389 ft | 319 kts | 57° |
| 2026-04-19 06:28 | 25.88119 | 127.28099 | 8983 ft | 318 kts | 57° |
| 2026-04-19 06:28 | 25.89242 | 127.30207 | 8642 ft | 315 kts | 62° |
| 2026-04-19 06:29 | 25.90017 | 127.32448 | 8224 ft | 316 kts | 76° |
| 2026-04-19 06:29 | 25.90538 | 127.34798 | 7912 ft | 312 kts | 75° |
| 2026-04-19 06:29 | 25.91075 | 127.37127 | 7564 ft | 310 kts | 75° |
| 2026-04-19 06:29 | 25.91619 | 127.39437 | 7233 ft | 308 kts | 74° |
| 2026-04-19 06:30 | 25.92163 | 127.41723 | 6796 ft | 305 kts | 74° |
| 2026-04-19 06:30 | 25.92700 | 127.43985 | 6292 ft | 301 kts | 73° |
| 2026-04-19 06:30 | 25.93226 | 127.46228 | 5739 ft | 298 kts | 75° |
| 2026-04-19 06:30 | 25.93743 | 127.48439 | 5265 ft | 293 kts | 75° |
| 2026-04-19 06:31 | 25.94249 | 127.50608 | 4835 ft | 288 kts | 75° |
| 2026-04-19 06:31 | 25.94743 | 127.52736 | 4428 ft | 289 kts | 76° |
| 2026-04-19 06:31 | 25.95244 | 127.54890 | 4064 ft | 287 kts | 75° |
| 2026-04-19 06:31 | 25.95803 | 127.56998 | 3771 ft | 283 kts | 66° |
| 2026-04-19 06:32 | 25.96832 | 127.58850 | 3431 ft | 280 kts | 48° |
| 2026-04-19 06:32 | 25.98280 | 127.60251 | 3103 ft | 275 kts | 30° |
| 2026-04-19 06:32 | 25.99956 | 127.61235 | 2843 ft | 266 kts | 25° |
| 2026-04-19 06:32 | 26.01547 | 127.62147 | 2711 ft | 251 kts | 26° |
| 2026-04-19 06:33 | 26.03072 | 127.63026 | 2619 ft | 242 kts | 24° |
| 2026-04-19 06:33 | 26.04560 | 127.63755 | 2485 ft | 232 kts | 13° |
| 2026-04-19 06:33 | 26.06115 | 127.63914 | 2266 ft | 218 kts | 355° |
| 2026-04-19 06:33 | 26.07595 | 127.63842 | 2003 ft | 207 kts | 355° |
| 2026-04-19 06:34 | 26.08967 | 127.63776 | 1757 ft | 189 kts | 355° |
| 2026-04-19 06:34 | 26.10219 | 127.63717 | 1527 ft | 170 kts | 355° |
| 2026-04-19 06:34 | 26.11332 | 127.63664 | 1293 ft | 152 kts | 355° |
| 2026-04-19 06:34 | 26.12356 | 127.63616 | 1087 ft | 145 kts | 355° |
| 2026-04-19 06:35 | 26.13352 | 127.63570 | 918 ft | 141 kts | 355° |
| 2026-04-19 06:35 | 26.14320 | 127.63524 | 755 ft | 140 kts | 355° |
| 2026-04-19 06:35 | 26.15286 | 127.63477 | 585 ft | 140 kts | 355° |
| 2026-04-19 06:35 | 26.16261 | 127.63428 | 377 ft | 142 kts | 356° |
| 2026-04-19 06:36 | 26.17234 | 127.63382 | 201 ft | 139 kts | 355° |
| 2026-04-19 06:36 | 26.18191 | 127.63338 | 28 ft | 136 kts | 356° |
| 2026-04-19 06:36 | 26.19037 | 127.63302 | 15 ft | 102 kts | 357° |
| 2026-04-19 06:36 | 26.19558 | 127.63274 | 18 ft | 50 kts | 358° |
| 2026-04-19 06:37 | 26.19820 | 127.63262 | 18 ft | 34 kts | 358° |
| 2026-04-19 06:37 | 26.20047 | 127.63252 | 18 ft | 31 kts | 357° |
| 2026-04-19 06:37 | 26.20220 | 127.63244 | 17 ft | 10 kts | 359° |
| 2026-04-19 06:37 | 26.20284 | 127.63272 | 16 ft | 10 kts | 54° |
| 2026-04-19 06:38 | 26.20295 | 127.63344 | 16 ft | 8 kts | 87° |
| 2026-04-19 06:38 | 26.20298 | 127.63406 | 18 ft | 9 kts | 87° |
| 2026-04-19 06:38 | 26.20302 | 127.63509 | 17 ft | 17 kts | 87° |
| 2026-04-19 06:38 | 26.20308 | 127.63672 | 17 ft | 25 kts | 88° |
| 2026-04-19 06:39 | 26.20317 | 127.63893 | 17 ft | 30 kts | 87° |
| 2026-04-19 06:39 | 26.20325 | 127.64097 | 17 ft | 25 kts | 88° |
| 2026-04-19 06:39 | 26.20332 | 127.64291 | 17 ft | 25 kts | 88° |
| 2026-04-19 06:39 | 26.20339 | 127.64476 | 18 ft | 23 kts | 87° |
| 2026-04-19 06:40 | 26.20347 | 127.64631 | 17 ft | 11 kts | 80° |
| 2026-04-19 06:40 | 26.20401 | 127.64682 | 17 ft | 10 kts | 27° |
| 2026-04-19 06:40 | 26.20464 | 127.64718 | 17 ft | 10 kts | 27° |
| 2026-04-19 06:40 | 26.20531 | 127.64748 | 17 ft | 11 kts | 5° |
| 2026-04-19 06:41 | 26.20609 | 127.64746 | 17 ft | 12 kts | 357° |
| 2026-04-19 06:41 | 26.20696 | 127.64741 | 17 ft | 13 kts | 356° |
| 2026-04-19 06:41 | 26.20788 | 127.64737 | 17 ft | 14 kts | 358° |
| 2026-04-19 06:41 | 26.20881 | 127.64740 | 18 ft | 11 kts | 19° |
| 2026-04-19 06:42 | 26.20912 | 127.64800 | 19 ft | 9 kts | 81° |
| 2026-04-19 06:42 | 26.20923 | 127.64858 | 20 ft | 7 kts | 59° |
| 2026-04-19 06:42 | 26.20963 | 127.64886 | 20 ft | 7 kts | 10° |
| 2026-04-19 06:42 | 26.21001 | 127.64904 | 20 ft | 5 kts | 65° |
| 2026-04-19 06:43 | 26.21005 | 127.64939 | 21 ft | 4 kts | 87° |
| 2026-04-19 06:43 | 26.21006 | 127.64974 | 21 ft | 1 kts | 88° |
| 2026-04-19 06:43 | 26.21006 | 127.64976 | 21 ft | 0 kts | 88° |